Temp: 9.9°C   Baro: 1017.8mb
  Wind: 8.1mph   Dir: W (274°)
  Rain: 0.0mm (0.0mm/hr)
  Sun: 309W/m2  Humidity: 63%

Historic data

Bath Spa Weather Station Historical Data
Daily Summary for December 07, 2023 Units:  Metric    English   Both
Daily Weekly Monthly Yearly Custom
  High: Low: Average:
Temperature: 8.2 °C 5.7 °C 7.1 °C
Dew Point: 7.3 °C 4.3 °C 5.9 °C
Humidity: 95% 89% 93%
Wind Speed: 22.9km/h 0km/h 9.8km/h
Wind Gust: 38.6km/h - -
Wind- - SSE
Pressure: 1012.8 hPa 998.5 hPa -
Precipitation: 3.3 mm    
Historical Graphs
 
 
Tabular Data for December 07, 2023
Time Temperature Dew Point Pressure Wind Wind Speed Wind Gust Humidity Rainfall Rate (Hourly) solar
00:09 5.7 °C 4.3 °C 1012.8 hPa SE 8.7 km/h 17.7 km/h 91.2% 0.25 mm 0 W/m2
00:14 5.7 °C 4.3 °C 1012.8 hPa SE 7.1 km/h 22.5 km/h 91% 0.25 mm 0 W/m2
00:19 5.8 °C 4.3 °C 1012.8 hPa SE 9.7 km/h 19.3 km/h 91% 0.25 mm 0 W/m2
00:24 5.8 °C 4.6 °C 1012.4 hPa ESE 11.3 km/h 24.1 km/h 91.8% 0.25 mm 0 W/m2
00:29 5.8 °C 4.6 °C 1012.4 hPa ESE 12.6 km/h 24.1 km/h 92% 0.25 mm 0 W/m2
00:34 5.8 °C 4.6 °C 1012.4 hPa SE 12.2 km/h 25.7 km/h 92% 0.51 mm 0 W/m2
00:39 5.8 °C 4.6 °C 1012.1 hPa ESE 10 km/h 20.9 km/h 92% 0.51 mm 0 W/m2
00:44 5.8 °C 4.6 °C 1012.1 hPa ESE 11.1 km/h 22.5 km/h 92% 0.51 mm 0 W/m2
00:49 5.8 °C 4.6 °C 1012.1 hPa SE 10.5 km/h 24.1 km/h 92% 0.51 mm 0 W/m2
00:54 5.8 °C 4.6 °C 1012.1 hPa ESE 8.9 km/h 25.7 km/h 92% 0.51 mm 0 W/m2
00:59 5.8 °C 4.6 °C 1011.7 hPa SE 9.2 km/h 25.7 km/h 92% 0.76 mm 0 W/m2
01:04 5.8 °C 4.6 °C 1011.7 hPa ESE 11.4 km/h 22.5 km/h 92% 0.76 mm 0 W/m2
01:09 5.8 °C 4.6 °C 1011.7 hPa ESE 7.7 km/h 20.9 km/h 92% 0.76 mm 0 W/m2
01:14 5.8 °C 4.6 °C 1011.7 hPa ESE 11.9 km/h 19.3 km/h 92% 0.76 mm 0 W/m2
01:19 5.8 °C 4.6 °C 1011.7 hPa SE 10.3 km/h 24.1 km/h 92.2% 0.76 mm 0 W/m2
01:24 5.8 °C 4.8 °C 1011.7 hPa ESE 13.5 km/h 30.6 km/h 93% 0.76 mm 0 W/m2
01:29 5.8 °C 4.8 °C 1011.7 hPa SE 9.3 km/h 24.1 km/h 93% 0.76 mm 0 W/m2
01:34 5.8 °C 4.8 °C 1011.4 hPa SE 16.4 km/h 25.7 km/h 93% 0.76 mm 0 W/m2
01:39 5.8 °C 4.8 °C 1011.4 hPa ESE 10.9 km/h 25.7 km/h 93% 0.51 mm 0 W/m2
01:44 5.8 °C 4.8 °C 1011.4 hPa ESE 10.9 km/h 24.1 km/h 93% 0.76 mm 0 W/m2
01:49 5.8 °C 4.8 °C 1011.1 hPa SE 10 km/h 20.9 km/h 93% 0.76 mm 0 W/m2
01:54 5.8 °C 4.8 °C 1011.1 hPa ESE 14.2 km/h 24.1 km/h 93% 0.76 mm 0 W/m2
01:59 5.8 °C 4.8 °C 1010.7 hPa SE 10 km/h 24.1 km/h 93% 0.51 mm 0 W/m2
02:04 5.8 °C 4.8 °C 1010.7 hPa ESE 12.6 km/h 24.1 km/h 93% 0.51 mm 0 W/m2
02:09 5.9 °C 4.9 °C 1010.7 hPa SE 10.9 km/h 27.4 km/h 93% 0.51 mm 0 W/m2
02:14 5.9 °C 4.9 °C 1010.7 hPa ESE 15.4 km/h 27.4 km/h 93% 0.51 mm 0 W/m2
02:19 5.9 °C 4.9 °C 1010.7 hPa ESE 10.3 km/h 25.7 km/h 93% 0.51 mm 0 W/m2
02:24 5.9 °C 4.9 °C 1010.7 hPa ESE 13.2 km/h 29 km/h 93% 0.51 mm 0 W/m2
02:29 6.1 °C 5.1 °C 1010.4 hPa SE 8.9 km/h 29 km/h 93% 0.51 mm 0 W/m2
02:34 6.1 °C 5.1 °C 1010.4 hPa ESE 14.5 km/h 24.1 km/h 93% 0.51 mm 0 W/m2
02:39 6.1 °C 5.1 °C 1010.4 hPa ESE 15.8 km/h 25.7 km/h 93% 0.51 mm 0 W/m2
02:44 6.1 °C 5.1 °C 1010 hPa ESE 15.1 km/h 27.4 km/h 93% 0.51 mm 0 W/m2
02:49 6.2 °C 5.2 °C 1010 hPa SE 16.4 km/h 29 km/h 93% 0.51 mm 0 W/m2
02:54 6.2 °C 5.2 °C 1010 hPa SE 13.2 km/h 30.6 km/h 93.2% 0.51 mm 0 W/m2
02:59 6.3 °C 5.3 °C 1010 hPa SE 13.8 km/h 27.4 km/h 93% 0.25 mm 0 W/m2
03:04 6.3 °C 5.3 °C 1010 hPa ESE 10 km/h 22.5 km/h 93% 0.25 mm 0 W/m2
03:09 6.3 °C 5.4 °C 1010 hPa SE 9 km/h 29 km/h 93.8% 0.25 mm 0 W/m2
03:14 6.4 °C 5.6 °C 1010 hPa SE 13.8 km/h 30.6 km/h 94% 0.25 mm 0 W/m2
03:19 6.5 °C 5.6 °C 1009.7 hPa SE 13.2 km/h 27.4 km/h 94% 0.25 mm 0 W/m2
03:24 6.6 °C 5.7 °C 1009.7 hPa SE 9.7 km/h 29 km/h 94% 0.25 mm 0 W/m2
03:29 6.6 °C 5.7 °C 1009.7 hPa SE 9.7 km/h 24.1 km/h 94% 0.25 mm 0 W/m2
03:34 6.7 °C 5.8 °C 1009.7 hPa SE 14.5 km/h 20.9 km/h 94% 0 mm 0 W/m2
03:39 6.7 °C 5.8 °C 1009.7 hPa SE 11.9 km/h 27.4 km/h 94% 0 mm 0 W/m2
03:44 6.7 °C 5.8 °C 1009.4 hPa SE 16.1 km/h 30.6 km/h 94% 0 mm 0 W/m2
03:49 6.8 °C 5.9 °C 1009.4 hPa SE 10.6 km/h 30.6 km/h 94% 0 mm 0 W/m2
03:54 6.8 °C 5.9 °C 1009 hPa SE 10.6 km/h 25.7 km/h 94% 0 mm 0 W/m2
03:59 6.9 °C 6 °C 1009 hPa SE 17.1 km/h 27.4 km/h 94% 0 mm 0 W/m2
04:04 6.9 °C 6 °C 1009 hPa SE 12.6 km/h 30.6 km/h 94% 0 mm 0 W/m2
04:09 6.9 °C 6.1 °C 1009 hPa SE 18 km/h 30.6 km/h 94% 0 mm 0 W/m2
04:14 7.1 °C 5.9 °C 1009 hPa SSE 13.5 km/h 30.6 km/h 93% 0 mm 0 W/m2
04:19 7.1 °C 6 °C 1009 hPa ESE 10 km/h 22.5 km/h 93% 0 mm 0 W/m2
04:24 7.1 °C 5.9 °C 1009 hPa SE 10 km/h 22.5 km/h 93% 0 mm 0 W/m2
04:29 7.1 °C 6 °C 1009 hPa SE 14.2 km/h 27.4 km/h 93% 0 mm 0 W/m2
04:34 7.2 °C 6.1 °C 1009 hPa SE 12.1 km/h 27.4 km/h 93% 0 mm 0 W/m2
04:39 7.1 °C 6 °C 1009 hPa SE 10.6 km/h 24.1 km/h 93% 0 mm 0 W/m2
04:44 7.1 °C 6 °C 1009 hPa SE 12.9 km/h 24.1 km/h 93% 0 mm 0 W/m2
04:49 7.1 °C 6 °C 1009 hPa SE 11.3 km/h 29 km/h 93% 0 mm 0 W/m2
04:54 7.2 °C 6.1 °C 1009 hPa SE 9.8 km/h 29 km/h 93% 0 mm 0 W/m2
04:59 7.2 °C 6.1 °C 1009 hPa East 12.6 km/h 25.7 km/h 93% 0 mm 0 W/m2
05:04 7.2 °C 6.1 °C 1009 hPa SE 8.7 km/h 22.5 km/h 93% 0 mm 0 W/m2
05:09 7.1 °C 5.9 °C 1009 hPa SE 9.7 km/h 19.3 km/h 92.4% 0 mm 0 W/m2
05:14 7.1 °C 5.9 °C 1008.7 hPa SE 12.6 km/h 20.9 km/h 92.2% 0 mm 0 W/m2
05:19 7.1 °C 5.9 °C 1009 hPa ESE 11.3 km/h 27.4 km/h 92% 0 mm 0 W/m2
05:24 7.1 °C 5.9 °C 1008.7 hPa ESE 9.7 km/h 22.5 km/h 92% 0 mm 0 W/m2
05:29 7.1 °C 5.9 °C 1008.7 hPa SE 12.2 km/h 19.3 km/h 92% 0 mm 0 W/m2
05:34 7.1 °C 5.9 °C 1008.7 hPa SE 8.4 km/h 20.9 km/h 92% 0 mm 0 W/m2
05:39 7.1 °C 5.9 °C 1008.7 hPa SE 13.5 km/h 27.4 km/h 92% 0 mm 0 W/m2
05:44 7.1 °C 5.9 °C 1008.7 hPa ESE 15.4 km/h 30.6 km/h 92% 0 mm 0 W/m2
05:49 7.2 °C 5.9 °C 1008.4 hPa ESE 15.9 km/h 30.6 km/h 92% 0 mm 0 W/m2
05:54 7.1 °C 5.9 °C 1008.4 hPa SE 12.9 km/h 27.4 km/h 92% 0 mm 0 W/m2
05:59 7.2 °C 5.9 °C 1008.4 hPa SE 10.9 km/h 19.3 km/h 91.6% 0 mm 0 W/m2
06:04 7.2 °C 5.8 °C 1008 hPa SE 14.8 km/h 27.4 km/h 91% 0 mm 0 W/m2
06:09 7.2 °C 5.8 °C 1008 hPa SSE 14.2 km/h 25.7 km/h 91% 0 mm 0 W/m2
06:14 7.1 °C 5.7 °C 1008 hPa SE 10.9 km/h 24.1 km/h 91% 0 mm 0 W/m2
06:19 7.1 °C 5.7 °C 1007.7 hPa SE 14.2 km/h 30.6 km/h 91% 0 mm 0 W/m2
06:24 7.1 °C 5.7 °C 1008 hPa SE 11.1 km/h 22.5 km/h 91% 0 mm 0 W/m2
06:29 7.1 °C 5.7 °C 1008 hPa ESE 8.5 km/h 30.6 km/h 91% 0 mm 0 W/m2
06:34 7.1 °C 5.7 °C 1008 hPa ESE 12.6 km/h 24.1 km/h 91% 0 mm 0 W/m2
06:39 7 °C 5.6 °C 1007.7 hPa SE 9.7 km/h 29 km/h 91% 0 mm 0 W/m2
06:44 7 °C 5.6 °C 1007.7 hPa SE 7.9 km/h 17.7 km/h 91% 0 mm 0 W/m2
06:49 7 °C 5.6 °C 1007.7 hPa ESE 11.3 km/h 19.3 km/h 91% 0 mm 0 W/m2
06:54 7 °C 5.6 °C 1007.7 hPa SE 9.2 km/h 17.7 km/h 91% 0 mm 0 W/m2
06:59 7.1 °C 5.7 °C 1007.7 hPa SE 8 km/h 27.4 km/h 91% 0 mm 0 W/m2
07:04 7.1 °C 5.7 °C 1007.7 hPa ESE 14.5 km/h 30.6 km/h 91% 0 mm 0 W/m2
07:09 7.1 °C 5.7 °C 1007.3 hPa ESE 10 km/h 30.6 km/h 91% 0 mm 0 W/m2
07:14 7.2 °C 5.7 °C 1007.7 hPa ESE 10.1 km/h 22.5 km/h 91% 0 mm 0 W/m2
07:19 7.2 °C 5.8 °C 1007.3 hPa SE 10.3 km/h 17.7 km/h 91% 0 mm 0 W/m2
07:24 7.3 °C 5.9 °C 1007.3 hPa SE 16.7 km/h 32.2 km/h 91% 0 mm 0 W/m2
07:29 7.3 °C 5.9 °C 1007.3 hPa SSE 13.7 km/h 29 km/h 91% 0 mm 0 W/m2
07:34 7.3 °C 5.9 °C 1007.3 hPa SE 11.3 km/h 30.6 km/h 91% 0 mm 0 W/m2
07:39 7.3 °C 5.9 °C 1007.3 hPa SE 16.1 km/h 32.2 km/h 91% 0 mm 0 W/m2
07:44 7.4 °C 6 °C 1007.3 hPa SE 15.4 km/h 32.2 km/h 91% 0 mm 0 W/m2
07:49 7.4 °C 6 °C 1007 hPa SE 14.8 km/h 30.6 km/h 90.8% 0 mm 0 W/m2
07:54 7.4 °C 5.9 °C 1007 hPa SSE 17.4 km/h 25.7 km/h 90% 0 mm 0 W/m2
07:59 7.4 °C 5.9 °C 1007 hPa SE 14.2 km/h 24.1 km/h 90% 0 mm 0 W/m2
08:04 7.3 °C 5.8 °C 1007 hPa SE 18.7 km/h 33.8 km/h 90% 0 mm 0 W/m2
08:09 7.4 °C 5.9 °C 1006.7 hPa SE 19.2 km/h 33.8 km/h 90% 0 mm 0 W/m2
08:14 7.4 °C 5.9 °C 1007 hPa SE 14.5 km/h 27.4 km/h 90% 0 mm 0 W/m2
08:19 7.4 °C 5.9 °C 1006.7 hPa SSE 13.4 km/h 33.8 km/h 90% 0 mm 0 W/m2
08:24 7.4 °C 5.9 °C 1006.7 hPa SE 11.3 km/h 29 km/h 90% 0 mm 0 W/m2
08:29 7.3 °C 5.8 °C 1006.7 hPa SE 14.2 km/h 25.7 km/h 90% 0 mm 0 W/m2
08:34 7.3 °C 5.8 °C 1006.3 hPa SE 12.9 km/h 27.4 km/h 90% 0 mm 0 W/m2
08:39 7.3 °C 5.8 °C 1006.3 hPa SE 11.9 km/h 27.4 km/h 90% 0 mm 0 W/m2
08:44 7.3 °C 5.8 °C 1006.3 hPa SE 19 km/h 32.2 km/h 90% 0 mm 5 W/m2
08:48 7.3 °C 5.9 °C 1006.3 hPa SSE 14 km/h 24.1 km/h 90.8% 0 mm 5 W/m2
08:54 7.2 °C 5.8 °C 1006.3 hPa ESE 15.8 km/h 25.7 km/h 91% 0 mm 5 W/m2
08:59 7.2 °C 5.8 °C 1006 hPa SE 11.4 km/h 25.7 km/h 91% 0 mm 7 W/m2
09:04 7.2 °C 5.8 °C 1006 hPa SE 12.6 km/h 25.7 km/h 91% 0 mm 9 W/m2
09:09 7.2 °C 5.8 °C 1006 hPa SE 12.1 km/h 27.4 km/h 91% 0 mm 14 W/m2
09:14 7.1 °C 5.7 °C 1006 hPa SSE 17.1 km/h 35.4 km/h 91% 0 mm 14 W/m2
09:19 7.1 °C 5.7 °C 1006 hPa SSE 14.5 km/h 33.8 km/h 91% 0 mm 16 W/m2
09:24 7.1 °C 5.7 °C 1006 hPa ESE 15.1 km/h 27.4 km/h 91% 0 mm 16 W/m2
09:29 7.1 °C 5.7 °C 1005.6 hPa SE 12.1 km/h 27.4 km/h 91% 0 mm 14 W/m2
09:34 7 °C 5.6 °C 1005.6 hPa SE 13.5 km/h 22.5 km/h 91% 0 mm 16 W/m2
09:39 6.9 °C 5.6 °C 1005.6 hPa ESE 17.1 km/h 29 km/h 91% 0 mm 19 W/m2
09:44 6.9 °C 5.5 °C 1005.3 hPa SE 14.5 km/h 27.4 km/h 91% 0 mm 25 W/m2
09:49 6.9 °C 5.5 °C 1005.3 hPa ESE 12.1 km/h 29 km/h 91% 0 mm 28 W/m2
09:54 6.9 °C 5.5 °C 1005 hPa SE 14.8 km/h 30.6 km/h 91% 0 mm 32 W/m2
09:59 6.9 °C 5.5 °C 1005 hPa SE 16.4 km/h 30.6 km/h 91% 0 mm 35 W/m2
10:04 6.9 °C 5.4 °C 1005 hPa ESE 20.3 km/h 38.6 km/h 90.4% 0 mm 33 W/m2
10:09 6.9 °C 5.4 °C 1005.3 hPa SSE 13.5 km/h 27.4 km/h 90% 0 mm 28 W/m2
10:14 6.9 °C 5.4 °C 1005.3 hPa SSE 10.3 km/h 22.5 km/h 90% 0 mm 19 W/m2
10:19 6.8 °C 5.3 °C 1005.3 hPa ESE 13.2 km/h 22.5 km/h 90% 0 mm 23 W/m2
10:24 6.8 °C 5.2 °C 1005.3 hPa ESE 21.9 km/h 38.6 km/h 89.6% 0 mm 25 W/m2
10:29 6.8 °C 5.1 °C 1005.3 hPa ESE 14.2 km/h 38.6 km/h 89% 0 mm 21 W/m2
10:34 6.8 °C 5.1 °C 1005.3 hPa SE 18.5 km/h 30.6 km/h 89% 0 mm 25 W/m2
10:39 6.8 °C 5.1 °C 1005 hPa SE 12.9 km/h 35.4 km/h 89% 0 mm 21 W/m2
10:44 6.8 °C 5.1 °C 1005 hPa SE 16.3 km/h 32.2 km/h 89% 0 mm 23 W/m2
10:49 6.8 °C 5.1 °C 1005.3 hPa SE 19 km/h 37 km/h 89% 0 mm 26 W/m2
10:54 6.7 °C 5.1 °C 1005 hPa ESE 14.5 km/h 38.6 km/h 89% 0 mm 26 W/m2
10:59 6.7 °C 5 °C 1004.6 hPa SE 13.2 km/h 38.6 km/h 89% 0 mm 26 W/m2
11:04 6.7 °C 5.1 °C 1004.6 hPa SE 15.8 km/h 32.2 km/h 89.6% 0 mm 30 W/m2
11:09 6.7 °C 5.2 °C 1004.6 hPa SE 16.9 km/h 32.2 km/h 90% 0 mm 30 W/m2
11:14 6.8 °C 5.3 °C 1004.3 hPa SE 20.6 km/h 35.4 km/h 90% 0 mm 35 W/m2
11:19 6.8 °C 5.3 °C 1004.3 hPa SE 15.4 km/h 32.2 km/h 90% 0 mm 44 W/m2
11:24 6.8 °C 5.3 °C 1003.9 hPa SE 22.9 km/h 38.6 km/h 90% 0 mm 44 W/m2
11:29 6.9 °C 5.4 °C 1003.9 hPa SE 15.6 km/h 30.6 km/h 90% 0 mm 44 W/m2
11:34 6.9 °C 5.5 °C 1003.9 hPa SE 16.4 km/h 30.6 km/h 91% 0 mm 37 W/m2
11:39 6.8 °C 5.4 °C 1003.9 hPa SE 16.1 km/h 32.2 km/h 91% 0 mm 40 W/m2
11:44 6.9 °C 5.5 °C 1003.9 hPa ESE 17.7 km/h 33.8 km/h 91% 0 mm 40 W/m2
11:48 6.8 °C 5.4 °C 1003.9 hPa SE 13.7 km/h 27.4 km/h 91% 0 mm 40 W/m2
11:54 6.9 °C 5.5 °C 1003.9 hPa SE 14.8 km/h 27.4 km/h 91% 0 mm 35 W/m2
11:59 6.9 °C 5.5 °C 1003.6 hPa SE 12.2 km/h 25.7 km/h 91% 0 mm 35 W/m2
12:04 6.9 °C 5.6 °C 1003.6 hPa SE 15.1 km/h 25.7 km/h 91.4% 0 mm 37 W/m2
12:09 6.9 °C 5.7 °C 1003.3 hPa SE 13.2 km/h 27.4 km/h 92% 0.25 mm 39 W/m2
12:14 7 °C 5.8 °C 1003.3 hPa SE 14.8 km/h 27.4 km/h 92% 0.25 mm 44 W/m2
12:19 7 °C 5.8 °C 1002.9 hPa SE 12.6 km/h 22.5 km/h 92% 0.25 mm 46 W/m2
12:24 7 °C 5.8 °C 1002.9 hPa SE 18.5 km/h 30.6 km/h 92% 0.25 mm 35 W/m2
12:29 7 °C 5.8 °C 1002.9 hPa SE 16.4 km/h 29 km/h 92% 0.25 mm 37 W/m2
12:34 7 °C 5.8 °C 1002.9 hPa ESE 13.8 km/h 27.4 km/h 92% 0.25 mm 35 W/m2
12:39 7 °C 5.8 °C 1002.6 hPa ESE 14.8 km/h 27.4 km/h 92% 0.25 mm 39 W/m2
12:44 7 °C 5.8 °C 1002.6 hPa SE 14.5 km/h 30.6 km/h 92% 0.25 mm 39 W/m2
12:49 7 °C 5.8 °C 1002.3 hPa SE 14.2 km/h 27.4 km/h 92% 0.25 mm 40 W/m2
12:54 6.9 °C 5.8 °C 1002.3 hPa SE 8.5 km/h 29 km/h 92% 0.25 mm 42 W/m2
12:59 7 °C 5.8 °C 1002.3 hPa SE 13.2 km/h 24.1 km/h 92% 0.25 mm 46 W/m2
13:04 7 °C 5.8 °C 1002.3 hPa SE 15.9 km/h 25.7 km/h 92% 0.25 mm 42 W/m2
13:09 7 °C 5.8 °C 1001.9 hPa ESE 13.5 km/h 27.4 km/h 92% 0.25 mm 40 W/m2
13:14 7.1 °C 5.8 °C 1001.9 hPa ESE 10.9 km/h 30.6 km/h 92% 0 mm 35 W/m2
13:19 7 °C 5.8 °C 1001.9 hPa SE 13.8 km/h 27.4 km/h 92% 0 mm 32 W/m2
13:24 7.1 °C 5.8 °C 1001.9 hPa SE 11.9 km/h 27.4 km/h 92% 0 mm 28 W/m2
13:29 7 °C 5.8 °C 1001.9 hPa SE 12.7 km/h 22.5 km/h 92% 0 mm 26 W/m2
13:34 7 °C 5.8 °C 1001.6 hPa SE 13.8 km/h 24.1 km/h 92% 0 mm 25 W/m2
13:39 7.1 °C 5.9 °C 1001.6 hPa ESE 14.2 km/h 30.6 km/h 92% 0.25 mm 19 W/m2
13:44 7.1 °C 5.9 °C 1001.6 hPa SE 9.5 km/h 29 km/h 92% 0.25 mm 19 W/m2
13:49 7.1 °C 5.8 °C 1001.2 hPa SE 10.6 km/h 29 km/h 92% 0.25 mm 23 W/m2
13:54 7 °C 5.8 °C 1001.2 hPa SE 10.3 km/h 29 km/h 92% 0.51 mm 25 W/m2
13:59 6.9 °C 5.7 °C 1000.9 hPa SE 12.2 km/h 27.4 km/h 92% 0.51 mm 21 W/m2
14:04 6.9 °C 5.7 °C 1000.2 hPa SE 13.2 km/h 29 km/h 92.2% 0.51 mm 25 W/m2
14:09 6.9 °C 5.7 °C 999.5 hPa SE 21.6 km/h 33.8 km/h 92.4% 0.51 mm 32 W/m2
14:14 6.9 °C 5.8 °C 1000.2 hPa SE 14.6 km/h 32.2 km/h 93% 0.51 mm 33 W/m2
14:19 6.9 °C 5.8 °C 1000.2 hPa SE 12.1 km/h 22.5 km/h 93% 0.51 mm 18 W/m2
14:24 6.9 °C 5.8 °C 1000.2 hPa ESE 10.6 km/h 24.1 km/h 93% 0.51 mm 12 W/m2
14:29 7 °C 5.9 °C 1000.2 hPa SE 10.6 km/h 22.5 km/h 93% 0.51 mm 11 W/m2
14:34 7 °C 5.9 °C 1000.2 hPa ESE 9.5 km/h 30.6 km/h 93% 0.51 mm 9 W/m2
14:39 7.1 °C 6 °C 999.9 hPa SE 8.9 km/h 30.6 km/h 93% 0.51 mm 9 W/m2
14:44 7.1 °C 6 °C 999.9 hPa SE 10 km/h 20.9 km/h 93% 0.51 mm 9 W/m2
14:49 7.1 °C 6 °C 999.9 hPa SE 9.2 km/h 20.9 km/h 93% 0.51 mm 9 W/m2
14:54 7.1 °C 6 °C 999.5 hPa SE 15.4 km/h 22.5 km/h 93% 0.51 mm 11 W/m2
14:59 7.1 °C 6 °C 999.5 hPa SE 9 km/h 25.7 km/h 93% 0.51 mm 11 W/m2
15:04 7.1 °C 6 °C 999.5 hPa SE 8.9 km/h 22.5 km/h 93% 0.51 mm 9 W/m2
15:09 7.1 °C 6 °C 999.5 hPa SE 11.9 km/h 22.5 km/h 93% 0.51 mm 9 W/m2
15:14 7.1 °C 6 °C 999.5 hPa SE 10.3 km/h 22.5 km/h 93% 0.25 mm 7 W/m2
15:19 7.2 °C 6.1 °C 999.5 hPa SE 8.7 km/h 22.5 km/h 93.2% 0.51 mm 9 W/m2
15:24 7.2 °C 6.3 °C 999.5 hPa SE 11.9 km/h 25.7 km/h 94% 0.51 mm 5 W/m2
15:29 7.2 °C 6.3 °C 999.2 hPa SSE 10.1 km/h 25.7 km/h 94% 0.51 mm 5 W/m2
15:34 7.2 °C 6.3 °C 999.2 hPa SE 10.3 km/h 25.7 km/h 94% 0.51 mm 5 W/m2
15:39 7.2 °C 6.3 °C 999.2 hPa SE 11.4 km/h 19.3 km/h 94% 0.51 mm 5 W/m2
15:44 7.2 °C 6.3 °C 999.2 hPa ESE 8.5 km/h 20.9 km/h 94% 0.51 mm 5 W/m2
15:49 7.3 °C 6.4 °C 998.9 hPa SE 8.5 km/h 25.7 km/h 94% 0.51 mm 0 W/m2
15:54 7.3 °C 6.4 °C 998.9 hPa SE 10.3 km/h 20.9 km/h 94% 0.76 mm 0 W/m2
15:59 7.3 °C 6.4 °C 998.9 hPa SSE 8.7 km/h 20.9 km/h 94% 0.76 mm 0 W/m2
16:04 7.3 °C 6.4 °C 998.9 hPa SE 8.4 km/h 20.9 km/h 94% 0.51 mm 0 W/m2
16:09 7.3 °C 6.4 °C 998.9 hPa SE 10.9 km/h 19.3 km/h 94% 0.51 mm 0 W/m2
16:14 7.4 °C 6.5 °C 998.9 hPa SE 7.9 km/h 16.1 km/h 94% 0.51 mm 0 W/m2
16:19 7.4 °C 6.5 °C 998.9 hPa SE 8.7 km/h 17.7 km/h 94% 0.51 mm 0 W/m2
16:24 7.4 °C 6.5 °C 998.9 hPa SSE 8.5 km/h 14.5 km/h 94% 0.51 mm 0 W/m2
16:29 7.5 °C 6.6 °C 998.9 hPa SSE 7.1 km/h 16.1 km/h 94% 0.51 mm 0 W/m2
16:34 7.6 °C 6.7 °C 998.9 hPa SE 12.2 km/h 22.5 km/h 94% 0.51 mm 0 W/m2
16:39 7.6 °C 6.7 °C 998.9 hPa SE 14.8 km/h 24.1 km/h 94% 0.25 mm 0 W/m2
16:44 7.7 °C 6.7 °C 998.9 hPa SSE 10.6 km/h 20.9 km/h 94% 0.25 mm 0 W/m2
16:49 7.7 °C 6.8 °C 998.9 hPa SE 9.3 km/h 16.1 km/h 94% 0.25 mm 0 W/m2
16:54 7.7 °C 6.8 °C 998.9 hPa SE 7.7 km/h 14.5 km/h 94% 0 mm 0 W/m2
16:59 7.7 °C 6.8 °C 998.9 hPa SE 8.2 km/h 16.1 km/h 94% 0 mm 0 W/m2
17:04 7.8 °C 6.8 °C 998.9 hPa SE 8.7 km/h 17.7 km/h 94% 0 mm 0 W/m2
17:09 7.8 °C 6.9 °C 998.9 hPa SSE 5.3 km/h 14.5 km/h 94% 0 mm 0 W/m2
17:14 7.8 °C 6.9 °C 998.9 hPa SSE 8.2 km/h 17.7 km/h 94% 0 mm 0 W/m2
17:19 7.9 °C 7 °C 998.9 hPa SE 5.1 km/h 12.9 km/h 94% 0 mm 0 W/m2
17:24 7.9 °C 7 °C 998.9 hPa South 1.6 km/h 9.7 km/h 94% 0 mm 0 W/m2
17:29 7.9 °C 7 °C 998.9 hPa South 3.9 km/h 6.4 km/h 94% 0 mm 0 W/m2
17:34 7.9 °C 7 °C 998.9 hPa SSE 6 km/h 12.9 km/h 94% 0 mm 0 W/m2
17:39 7.9 °C 7 °C 998.5 hPa SSE 5.5 km/h 11.3 km/h 94% 0 mm 0 W/m2
17:44 7.9 °C 7.1 °C 998.5 hPa SE 5.3 km/h 16.1 km/h 94% 0 mm 0 W/m2
17:49 7.9 °C 7.1 °C 998.5 hPa SSE 2.1 km/h 11.3 km/h 94% 0 mm 0 W/m2
17:54 8 °C 7.1 °C 998.9 hPa SSE 1.4 km/h 6.4 km/h 94% 0 mm 0 W/m2
17:59 8 °C 7.1 °C 998.9 hPa SE 1.9 km/h 6.4 km/h 94% 0 mm 0 W/m2
18:04 7.9 °C 7.1 °C 998.9 hPa East 1.6 km/h 6.4 km/h 94% 0 mm 0 W/m2
18:09 8 °C 7.1 °C 999.2 hPa East 1.4 km/h 4.8 km/h 94% 0 mm 0 W/m2
18:14 8.2 °C 7.3 °C 999.2 hPa East 1.6 km/h 4.8 km/h 94% 0 mm 0 W/m2
18:19 8.2 °C 7.3 °C 999.2 hPa SSE 4.7 km/h 8 km/h 94% 0 mm 0 W/m2
18:24 8.2 °C 7.2 °C 999.2 hPa SSE 1.9 km/h 6.4 km/h 94% 0 mm 0 W/m2
18:29 8.1 °C 7.2 °C 999.2 hPa SSE 1.3 km/h 4.8 km/h 94% 0 mm 0 W/m2
18:34 8.1 °C 7.2 °C 999.2 hPa SSE 1.3 km/h 3.2 km/h 94% 0 mm 0 W/m2
18:39 8.1 °C 7.2 °C 999.5 hPa SSE 2.6 km/h 4.8 km/h 94% 0 mm 0 W/m2
18:44 8.1 °C 7.2 °C 999.5 hPa SSE 1.4 km/h 4.8 km/h 94% 0 mm 0 W/m2
18:49 8 °C 7.1 °C 999.5 hPa SSE 4.5 km/h 9.7 km/h 94% 0 mm 0 W/m2
18:54 8 °C 7.1 °C 999.2 hPa NW 2.4 km/h 9.7 km/h 94% 0 mm 0 W/m2
18:59 8.1 °C 7.2 °C 999.2 hPa NW 0.6 km/h 3.2 km/h 94% 0 mm 0 W/m2
19:04 7.9 °C 7.1 °C 999.5 hPa Calm     94% 0 mm 0 W/m2
19:09 7.9 °C 7 °C 999.5 hPa Calm     94.2% 0 mm 0 W/m2
19:14 7.9 °C 7.1 °C 999.5 hPa Calm     94.6% 0 mm 0 W/m2
19:19 7.9 °C 7.1 °C 999.2 hPa Calm     95% 0 mm 0 W/m2
19:24 7.8 °C 7.1 °C 999.5 hPa Calm     95% 0 mm 0 W/m2
19:29 7.8 °C 6.9 °C 999.5 hPa Calm     94.8% 0 mm 0 W/m2
19:34 7.7 °C 6.8 °C 999.5 hPa Calm     94% 0 mm 0 W/m2
19:39 7.7 °C 6.8 °C 999.5 hPa NW 2.3 km/h 6.4 km/h 94.4% 0 mm 0 W/m2
19:44 7.8 °C 7 °C 999.5 hPa NW 2.6 km/h 6.4 km/h 95% 0 mm 0 W/m2
19:49 7.8 °C 7.1 °C 999.5 hPa NW 3.1 km/h 4.8 km/h 95% 0 mm 0 W/m2
19:54 7.9 °C 7.1 °C 999.5 hPa NW 3.2 km/h 6.4 km/h 95% 0 mm 0 W/m2
19:59 7.9 °C 7.1 °C 999.5 hPa NW 2.1 km/h 4.8 km/h 95% 0 mm 0 W/m2
20:04 7.9 °C 7.1 °C 999.5 hPa NW 2.6 km/h 4.8 km/h 95% 0 mm 0 W/m2
20:09 7.9 °C 7.1 °C 999.5 hPa NW 3.4 km/h 4.8 km/h 95% 0 mm 0 W/m2
20:14 7.9 °C 7.1 °C 999.5 hPa NW 3.9 km/h 6.4 km/h 95% 0 mm 0 W/m2
20:19 7.9 °C 7.1 °C 999.5 hPa NW 3.4 km/h 6.4 km/h 95% 0 mm 0 W/m2
20:24 7.9 °C 7.1 °C 999.5 hPa NW 4 km/h 6.4 km/h 95% 0 mm 0 W/m2
20:29 7.9 °C 7.1 °C 999.5 hPa NW 3.9 km/h 6.4 km/h 95% 0 mm 0 W/m2
20:34 7.9 °C 7.1 °C 999.5 hPa WNW 2.7 km/h 6.4 km/h 95% 0 mm 0 W/m2
20:39 7.9 °C 7.1 °C 999.5 hPa WNW 3.2 km/h 4.8 km/h 95% 0 mm 0 W/m2
20:44 7.8 °C 7.1 °C 999.9 hPa WNW 3.2 km/h 6.4 km/h 95% 0 mm 0 W/m2
20:49 7.8 °C 7 °C 999.9 hPa WNW 4 km/h 6.4 km/h 95% 0 mm 0 W/m2
20:54 7.8 °C 7 °C 999.5 hPa WNW 3.5 km/h 4.8 km/h 95% 0 mm 0 W/m2
20:59 7.8 °C 7 °C 999.5 hPa WNW 3.9 km/h 6.4 km/h 95% 0 mm 0 W/m2
21:04 7.7 °C 6.9 °C 999.9 hPa WNW 2.9 km/h 4.8 km/h 95% 0 mm 0 W/m2
21:09 7.8 °C 6.9 °C 999.9 hPa WNW 1.8 km/h 6.4 km/h 95% 0 mm 0 W/m2
21:14 7.7 °C 6.9 °C 999.9 hPa WNW 0.6 km/h 3.2 km/h 95% 0 mm 0 W/m2
21:19 7.7 °C 6.9 °C 999.9 hPa WNW 2.3 km/h 3.2 km/h 95% 0 mm 0 W/m2
21:24 7.4 °C 6.8 °C 999.9 hPa WNW 2.9 km/h 4.8 km/h 95% 0 mm 0 W/m2
21:29 7.5 °C 6.8 °C 1000.2 hPa WNW 3.4 km/h 6.4 km/h 95% 0 mm 0 W/m2
21:34 7.6 °C 6.9 °C 1000.2 hPa WNW 3.2 km/h 6.4 km/h 95% 0 mm 0 W/m2
21:39 7.6 °C 6.9 °C 1000.2 hPa WNW 3.4 km/h 6.4 km/h 95% 0 mm 0 W/m2
21:44 7.6 °C 6.8 °C 1000.2 hPa WNW 3.2 km/h 4.8 km/h 95% 0 mm 0 W/m2
21:49 7.3 °C 6.7 °C 1000.2 hPa WNW 2.1 km/h 4.8 km/h 95% 0 mm 0 W/m2
21:54 7.2 °C 6.5 °C 1000.2 hPa WNW 1.9 km/h 4.8 km/h 95% 0 mm 0 W/m2
21:59 7.1 °C 6.4 °C 1000.2 hPa WNW 4 km/h 4.8 km/h 95% 0 mm 0 W/m2
22:04 7.1 °C 6.4 °C 1000.2 hPa WNW 2.9 km/h 6.4 km/h 95% 0 mm 0 W/m2
22:09 7.1 °C 6.4 °C 1000.2 hPa West 3.5 km/h 6.4 km/h 95% 0 mm 0 W/m2
22:14 7.2 °C 6.4 °C 1000.2 hPa West 3.2 km/h 6.4 km/h 95% 0 mm 0 W/m2
22:19 7.2 °C 6.6 °C 1000.2 hPa West 3.4 km/h 6.4 km/h 95% 0 mm 0 W/m2
22:24 7.3 °C 6.6 °C 1000.2 hPa West 3.1 km/h 6.4 km/h 95% 0 mm 0 W/m2
22:29 7.3 °C 6.6 °C 1000.2 hPa West 3.4 km/h 4.8 km/h 95% 0 mm 0 W/m2
22:34 7.2 °C 6.5 °C 1000.2 hPa West 3.9 km/h 4.8 km/h 95% 0 mm 0 W/m2
22:39 7.1 °C 6.4 °C 1000.2 hPa West 3.1 km/h 6.4 km/h 95% 0 mm 0 W/m2
22:44 7.1 °C 6.4 °C 1000.2 hPa West 2.1 km/h 6.4 km/h 95% 0 mm 0 W/m2
22:49 6.9 °C 6.2 °C 1000.6 hPa West 3.2 km/h 4.8 km/h 95% 0 mm 0 W/m2
22:54 6.8 °C 6.1 °C 1000.6 hPa West 2.9 km/h 4.8 km/h 95% 0 mm 0 W/m2
22:59 6.7 °C 6 °C 1000.6 hPa West 3.2 km/h 4.8 km/h 95% 0 mm 0 W/m2
23:04 6.7 °C 5.9 °C 1000.6 hPa West 3.9 km/h 6.4 km/h 95% 0 mm 0 W/m2
23:09 6.6 °C 5.9 °C 1000.6 hPa West 3.5 km/h 6.4 km/h 95% 0 mm 0 W/m2
23:14 6.6 °C 5.9 °C 1000.9 hPa West 3.2 km/h 8 km/h 95% 0 mm 0 W/m2
23:19 6.6 °C 5.8 °C 1000.9 hPa West 3.2 km/h 4.8 km/h 95% 0 mm 0 W/m2
23:24 6.5 °C 5.8 °C 1000.9 hPa West 4 km/h 4.8 km/h 95% 0 mm 0 W/m2
23:29 6.6 °C 5.8 °C 1000.9 hPa West 2.6 km/h 4.8 km/h 95% 0 mm 0 W/m2
23:34 6.4 °C 5.8 °C 1001.2 hPa West 2.6 km/h 4.8 km/h 95% 0 mm 0 W/m2
23:39 6.3 °C 5.7 °C 1001.2 hPa West 3.2 km/h 4.8 km/h 95% 0 mm 0 W/m2
23:44 6.3 °C 5.7 °C 1001.2 hPa West 3.9 km/h 4.8 km/h 95% 0 mm 0 W/m2
23:49 6.4 °C 5.7 °C 1001.2 hPa West 3.2 km/h 6.4 km/h 95% 0 mm 0 W/m2
23:54 6.3 °C 5.7 °C 1001.2 hPa WNW 3.5 km/h 8 km/h 95% 0 mm 0 W/m2
23:59 6.4 °C 5.7 °C 1001.2 hPa WNW 3.9 km/h 6.4 km/h 95% 0 mm 0 W/m2
Bath Spa Weather
Compliments of Weather Underground - 2 mb